createdAt,value
2024-03-01T00:01:31.074Z,9.41
2024-03-01T00:04:03.150Z,9.40
2024-03-01T00:06:34.981Z,9.38
2024-03-01T00:09:07.172Z,9.37
2024-03-01T00:11:39.222Z,9.39
2024-03-01T00:14:11.012Z,9.41
2024-03-01T00:16:42.904Z,9.41
2024-03-01T00:19:14.803Z,9.41
2024-03-01T00:21:46.647Z,9.40
2024-03-01T00:24:18.484Z,9.43
2024-03-01T00:26:50.406Z,9.45
2024-03-01T00:29:22.208Z,9.44
2024-03-01T00:31:54.466Z,9.45
2024-03-01T00:34:26.288Z,9.44
2024-03-01T00:36:58.200Z,9.46
2024-03-01T00:39:30.041Z,9.48
2024-03-01T00:42:02.177Z,9.47
2024-03-01T00:44:34.094Z,9.47
2024-03-01T00:47:06.259Z,9.47
2024-03-01T00:49:38.186Z,9.49
2024-03-01T00:52:10.128Z,9.51
2024-03-01T00:54:41.968Z,9.52
2024-03-01T00:57:14.639Z,9.50
2024-03-01T00:59:46.581Z,9.49
2024-03-01T01:02:18.650Z,9.51
2024-03-01T01:04:50.785Z,9.53
2024-03-01T01:07:22.641Z,9.54
2024-03-01T01:09:54.476Z,9.55
2024-03-01T01:12:26.505Z,9.54
2024-03-01T01:14:58.664Z,9.56
2024-03-01T01:17:31.940Z,9.57
2024-03-01T01:20:04.896Z,9.57
2024-03-01T01:22:37.344Z,9.55
2024-03-01T01:25:10.719Z,9.53
2024-03-01T01:27:42.625Z,9.56
2024-03-01T01:30:16.266Z,9.56
2024-03-01T01:32:48.521Z,9.56
2024-03-01T01:35:20.455Z,9.55
2024-03-01T01:37:52.333Z,9.53
2024-03-01T01:40:24.245Z,9.54
2024-03-01T01:42:58.088Z,9.54
2024-03-01T01:45:30.150Z,9.51
2024-03-01T01:48:04.425Z,9.50
2024-03-01T01:50:36.721Z,9.49
2024-03-01T01:53:13.665Z,9.52
2024-03-01T01:55:54.322Z,9.52
2024-03-01T01:58:27.658Z,9.50
2024-03-01T02:01:00.384Z,9.49
2024-03-01T02:03:32.749Z,9.46
2024-03-01T02:06:06.240Z,9.47
2024-03-01T02:08:39.831Z,9.48
2024-03-01T02:11:11.796Z,9.46
2024-03-01T02:13:44.356Z,9.44
2024-03-01T02:16:16.294Z,9.42
2024-03-01T02:18:49.832Z,9.43
2024-03-01T02:21:28.689Z,9.44
2024-03-01T02:24:00.978Z,9.42
2024-03-01T02:26:32.821Z,9.40
2024-03-01T02:29:04.643Z,9.39
2024-03-01T02:31:36.506Z,9.42
2024-03-01T02:34:08.578Z,9.42
2024-03-01T02:36:40.356Z,9.41
2024-03-01T02:39:19.767Z,9.39
2024-03-01T02:41:51.768Z,9.38
2024-03-01T02:44:23.598Z,9.41
2024-03-01T02:46:55.389Z,9.42
2024-03-01T02:49:27.313Z,9.40
2024-03-01T02:51:59.169Z,9.39
2024-03-01T02:54:31.034Z,9.37
2024-03-01T02:57:02.915Z,9.39
2024-03-01T02:59:34.833Z,9.40
2024-03-01T03:02:06.822Z,9.39
2024-03-01T03:04:39.797Z,9.37
2024-03-01T03:07:12.695Z,9.35
2024-03-01T03:09:46.434Z,9.37
2024-03-01T03:12:18.241Z,9.37
2024-03-01T03:14:50.516Z,9.37
2024-03-01T03:17:22.681Z,9.35
2024-03-01T03:19:55.468Z,9.34
2024-03-01T03:22:27.342Z,9.35
2024-03-01T03:24:59.188Z,9.36
2024-03-01T03:27:31.212Z,9.35
2024-03-01T03:30:03.075Z,9.31
2024-03-01T03:32:35.380Z,9.30
2024-03-01T03:35:09.428Z,9.31
2024-03-01T03:37:41.301Z,9.31
2024-03-01T03:40:16.660Z,9.31
2024-03-01T03:42:48.764Z,9.30
2024-03-01T03:45:20.893Z,9.28
2024-03-01T03:47:52.750Z,9.29
2024-03-01T03:50:26.249Z,9.28
2024-03-01T03:52:58.361Z,9.28
2024-03-01T03:55:30.436Z,9.26
2024-03-01T03:58:02.424Z,9.25
2024-03-01T04:00:34.500Z,9.25
2024-03-01T04:03:06.700Z,9.26
2024-03-01T04:05:39.406Z,9.27
2024-03-01T04:08:11.211Z,9.26
2024-03-01T04:10:43.197Z,9.25
2024-03-01T04:13:15.079Z,9.27
2024-03-01T04:15:46.945Z,9.28
2024-03-01T04:18:19.444Z,9.29
2024-03-01T04:20:51.428Z,9.28
2024-03-01T04:23:23.305Z,9.26
2024-03-01T04:25:56.838Z,9.27
2024-03-01T04:28:29.191Z,9.28
2024-03-01T04:31:01.747Z,9.29
2024-03-01T04:33:34.731Z,9.29
2024-03-01T04:36:08.812Z,9.27
2024-03-01T04:38:41.297Z,9.26
2024-03-01T04:41:19.876Z,9.28
2024-03-01T04:43:51.712Z,9.29
2024-03-01T04:46:24.038Z,9.28
2024-03-01T04:48:56.943Z,9.27
2024-03-01T04:51:30.177Z,9.26
2024-03-01T04:54:02.200Z,9.27
2024-03-01T04:56:34.201Z,9.26
2024-03-01T04:59:09.640Z,9.25
2024-03-01T05:01:43.089Z,9.24
2024-03-01T05:04:14.981Z,9.27
2024-03-01T05:06:47.108Z,9.30
2024-03-01T05:09:19.898Z,9.31
2024-03-01T05:11:51.957Z,9.34
2024-03-01T05:14:27.252Z,9.39
2024-03-01T05:16:59.172Z,9.46
2024-03-01T05:19:31.173Z,9.53
2024-03-01T05:22:03.493Z,9.57
2024-03-01T05:24:35.293Z,9.56
2024-03-01T05:27:14.146Z,9.53
2024-03-01T05:29:46.504Z,9.50
2024-03-01T05:32:18.373Z,9.48
2024-03-01T05:34:51.042Z,9.46
2024-03-01T05:37:23.250Z,9.42
2024-03-01T05:39:55.539Z,9.39
2024-03-01T05:42:27.410Z,9.39
2024-03-01T05:44:59.479Z,9.40
2024-03-01T05:47:31.465Z,9.41
2024-03-01T05:50:03.576Z,9.40
2024-03-01T05:52:35.798Z,9.40
2024-03-01T05:55:10.035Z,9.42
2024-03-01T05:57:42.653Z,9.45
2024-03-01T06:00:26.371Z,9.48
2024-03-01T06:02:59.075Z,9.49
2024-03-01T06:05:31.773Z,9.50
2024-03-01T06:08:03.988Z,9.52
2024-03-01T06:10:36.404Z,9.56
2024-03-01T06:13:08.975Z,9.59
2024-03-01T06:15:40.878Z,9.59
2024-03-01T06:18:12.866Z,9.59
2024-03-01T06:20:45.825Z,9.60
2024-03-01T06:23:18.995Z,9.65
2024-03-01T06:25:51.220Z,9.68
2024-03-01T06:28:23.277Z,9.69
2024-03-01T06:30:55.697Z,9.69
2024-03-01T06:33:27.799Z,9.69
2024-03-01T06:36:00.324Z,9.72
2024-03-01T06:38:32.212Z,9.74
2024-03-01T06:41:06.927Z,9.76
2024-03-01T06:43:39.069Z,9.75
2024-03-01T06:46:11.426Z,9.75
2024-03-01T06:48:43.430Z,9.77
2024-03-01T06:51:15.376Z,9.81
2024-03-01T06:53:47.581Z,9.85
2024-03-01T06:56:19.705Z,9.86
2024-03-01T06:58:52.082Z,9.89
2024-03-01T07:01:24.089Z,9.93
2024-03-01T07:03:56.795Z,10.00
2024-03-01T07:06:29.448Z,10.06
2024-03-01T07:09:03.180Z,10.10
2024-03-01T07:11:35.175Z,10.13
2024-03-01T07:14:09.243Z,10.13
2024-03-01T07:16:41.139Z,10.16
2024-03-01T07:19:13.342Z,10.19
2024-03-01T07:21:45.359Z,10.19
2024-03-01T07:24:17.283Z,10.17
2024-03-01T07:26:49.261Z,10.16
2024-03-01T07:29:21.292Z,10.21
2024-03-01T07:31:53.821Z,10.25
2024-03-01T07:34:25.806Z,10.28
2024-03-01T07:36:57.802Z,10.31
2024-03-01T07:39:30.591Z,10.36
2024-03-01T07:42:02.449Z,10.43
2024-03-01T07:44:35.879Z,10.50
2024-03-01T07:47:08.194Z,10.55
2024-03-01T07:49:40.267Z,10.60
2024-03-01T07:52:12.643Z,10.65
2024-03-01T07:54:45.979Z,10.70
2024-03-01T07:57:17.937Z,10.78
2024-03-01T07:59:50.694Z,10.85
2024-03-01T08:02:22.521Z,10.89
2024-03-01T08:04:54.493Z,10.91
2024-03-01T08:07:26.465Z,10.95
2024-03-01T08:09:58.305Z,10.99
2024-03-01T08:12:30.067Z,11.06
2024-03-01T08:15:08.859Z,11.12
2024-03-01T08:17:40.878Z,11.19
2024-03-01T08:20:39.068Z,11.24
2024-03-01T08:23:14.116Z,11.30
2024-03-01T08:25:46.349Z,11.38
2024-03-01T08:28:24.715Z,11.45
2024-03-01T08:30:57.634Z,11.45
2024-03-01T08:33:29.585Z,11.48
2024-03-01T08:36:02.389Z,11.51
2024-03-01T08:39:07.942Z,11.58
2024-03-01T08:41:44.488Z,11.67
2024-03-01T08:44:51.114Z,11.71
2024-03-01T08:47:29.175Z,11.75
2024-03-01T08:50:34.194Z,11.80
2024-03-01T08:53:21.679Z,11.85
2024-03-01T08:55:55.381Z,11.94
2024-03-01T08:58:29.339Z,12.05
2024-03-01T09:01:01.366Z,12.10
2024-03-01T09:03:34.132Z,12.16
2024-03-01T09:06:14.177Z,12.21
2024-03-01T09:08:46.285Z,12.27
2024-03-01T09:11:21.704Z,12.32
2024-03-01T09:13:54.081Z,12.37
2024-03-01T09:16:26.682Z,12.45
2024-03-01T09:18:58.545Z,12.47
2024-03-01T09:21:47.998Z,12.48
2024-03-01T09:24:21.586Z,12.53
2024-03-01T09:26:56.821Z,12.59
2024-03-01T09:29:39.482Z,12.63
2024-03-01T09:32:13.654Z,12.69
2024-03-01T09:34:47.058Z,12.75
2024-03-01T09:37:23.543Z,12.84
2024-03-01T09:39:57.069Z,12.91
2024-03-01T09:42:50.588Z,12.98
2024-03-01T09:45:49.056Z,13.07
2024-03-01T09:48:41.986Z,13.13
2024-03-01T09:51:36.735Z,13.21
2024-03-01T09:54:22.620Z,13.31
2024-03-01T09:57:07.952Z,13.43
2024-03-01T09:59:48.562Z,13.62
2024-03-01T10:02:38.292Z,13.85
2024-03-01T10:05:27.072Z,14.11
2024-03-01T10:08:07.212Z,14.39
2024-03-01T10:10:48.249Z,14.70
2024-03-01T10:13:35.232Z,14.98
2024-03-01T10:16:27.276Z,15.27
2024-03-01T10:19:20.534Z,15.53
2024-03-01T10:22:09.981Z,15.76
2024-03-01T10:24:58.089Z,15.98
2024-03-01T10:27:35.715Z,16.16
2024-03-01T10:30:14.266Z,16.35
2024-03-01T10:33:04.379Z,16.57
2024-03-01T10:36:01.794Z,16.88
2024-03-01T10:38:45.913Z,17.09
2024-03-01T10:41:28.493Z,17.09
2024-03-01T10:44:15.059Z,17.09
2024-03-01T10:46:57.712Z,17.08
2024-03-01T10:49:40.571Z,17.03
2024-03-01T10:52:18.816Z,17.06
2024-03-01T10:54:56.904Z,17.49
2024-03-01T10:57:29.397Z,18.41
2024-03-01T11:00:07.888Z,18.67
2024-03-01T11:02:49.125Z,18.81
2024-03-01T11:05:29.820Z,19.12
2024-03-01T11:08:13.114Z,19.67
2024-03-01T11:10:50.813Z,20.35
2024-03-01T11:13:26.925Z,21.38
2024-03-01T11:16:01.251Z,21.91
2024-03-01T11:18:39.547Z,21.95
2024-03-01T11:21:15.693Z,22.51
2024-03-01T11:23:58.244Z,23.61
2024-03-01T11:26:35.000Z,24.13
2024-03-01T11:29:14.247Z,24.14
2024-03-01T11:31:49.164Z,24.50
2024-03-01T11:34:43.503Z,24.99
2024-03-01T11:37:25.090Z,24.94
2024-03-01T11:40:07.517Z,24.52
2024-03-01T11:42:54.871Z,24.43
2024-03-01T11:45:35.069Z,24.51
2024-03-01T11:48:40.772Z,24.53
2024-03-01T11:51:25.181Z,24.97
2024-03-01T11:54:26.876Z,25.89
2024-03-01T11:57:06.584Z,26.33
2024-03-01T12:00:01.146Z,26.31
2024-03-01T12:02:47.960Z,26.19
2024-03-01T12:05:26.364Z,25.73
2024-03-01T12:08:20.179Z,25.51
2024-03-01T12:11:05.440Z,25.16
2024-03-01T12:13:43.956Z,24.48
2024-03-01T12:16:23.957Z,24.06
2024-03-01T12:19:04.101Z,23.99
2024-03-01T12:21:48.458Z,24.05
2024-03-01T12:24:23.083Z,24.23
2024-03-01T12:27:06.649Z,24.29
2024-03-01T12:29:54.658Z,24.10
2024-03-01T12:32:39.475Z,24.03
2024-03-01T12:35:30.541Z,24.05
2024-03-01T12:38:15.926Z,23.85
2024-03-01T12:41:05.654Z,23.41
2024-03-01T12:43:57.608Z,22.91
2024-03-01T12:46:57.696Z,22.46
2024-03-01T12:49:41.911Z,22.10
2024-03-01T12:52:26.311Z,21.85
2024-03-01T12:55:08.134Z,21.63
2024-03-01T12:57:59.430Z,21.54
2024-03-01T13:00:36.271Z,21.54
2024-03-01T13:03:30.491Z,21.50
2024-03-01T13:06:04.099Z,21.43
2024-03-01T13:08:42.087Z,21.31
2024-03-01T13:11:16.135Z,21.17
2024-03-01T13:13:58.468Z,20.96
2024-03-01T13:16:30.956Z,20.66
2024-03-01T13:19:14.139Z,20.36
2024-03-01T13:21:56.504Z,20.09
2024-03-01T13:24:46.346Z,19.85
2024-03-01T13:27:30.248Z,19.63
2024-03-01T13:30:06.695Z,19.42
2024-03-01T13:32:44.895Z,19.22
2024-03-01T13:35:17.984Z,19.03
2024-03-01T13:37:58.275Z,18.89
2024-03-01T13:40:33.388Z,18.74
2024-03-01T13:43:14.017Z,18.60
2024-03-01T13:45:46.693Z,18.40
2024-03-01T13:48:25.774Z,18.23
2024-03-01T13:50:58.524Z,18.03
2024-03-01T13:53:30.760Z,17.85
2024-03-01T13:56:05.256Z,17.68
2024-03-01T13:58:37.102Z,17.52
2024-03-01T14:01:10.391Z,17.36
2024-03-01T14:03:52.068Z,17.22
2024-03-01T14:06:25.326Z,17.07
2024-03-01T14:09:13.948Z,16.93
2024-03-01T14:11:48.534Z,16.81
2024-03-01T14:14:21.655Z,16.72
2024-03-01T14:16:53.763Z,16.63
2024-03-01T14:19:25.704Z,16.53
2024-03-01T14:21:57.651Z,16.45
2024-03-01T14:24:29.758Z,16.38
2024-03-01T14:27:02.165Z,16.30
2024-03-01T14:29:34.328Z,16.23
2024-03-01T14:32:15.322Z,16.17
2024-03-01T14:34:47.310Z,16.11
2024-03-01T14:37:29.526Z,16.03
2024-03-01T14:40:13.021Z,15.91
2024-03-01T14:42:50.041Z,15.79
2024-03-01T14:45:23.365Z,15.70
2024-03-01T14:47:58.825Z,15.60
2024-03-01T14:50:32.615Z,15.52
2024-03-01T14:53:15.856Z,15.42
2024-03-01T14:55:51.002Z,15.29
2024-03-01T14:58:23.416Z,15.19
2024-03-01T15:00:55.511Z,15.10
2024-03-01T15:03:31.187Z,14.98
2024-03-01T15:06:04.378Z,14.85
2024-03-01T15:08:41.727Z,14.74
2024-03-01T15:11:15.689Z,14.61
2024-03-01T15:13:47.832Z,14.46
2024-03-01T15:16:24.129Z,14.32
2024-03-01T15:18:59.849Z,14.17
2024-03-01T15:21:31.707Z,13.99
2024-03-01T15:24:04.400Z,13.86
2024-03-01T15:26:47.157Z,13.71
2024-03-01T15:29:20.514Z,13.56
2024-03-01T15:31:53.456Z,13.46
2024-03-01T15:34:25.515Z,13.40
2024-03-01T15:36:57.342Z,13.34
2024-03-01T15:39:29.134Z,13.28
2024-03-01T15:42:00.886Z,13.19
2024-03-01T15:44:33.749Z,13.12
2024-03-01T15:47:05.734Z,13.01
2024-03-01T15:49:40.259Z,12.92
2024-03-01T15:52:12.522Z,12.84
2024-03-01T15:54:44.410Z,12.78
2024-03-01T15:57:16.756Z,12.71
2024-03-01T15:59:49.754Z,12.66
2024-03-01T16:02:23.322Z,12.60
2024-03-01T16:04:55.355Z,12.53
2024-03-01T16:07:27.233Z,12.46
2024-03-01T16:10:00.690Z,12.41
2024-03-01T16:12:32.541Z,12.37
2024-03-01T16:15:10.904Z,12.32
2024-03-01T16:17:44.478Z,12.28
2024-03-01T16:20:16.800Z,12.22
2024-03-01T16:22:49.288Z,12.17
2024-03-01T16:25:22.256Z,12.11
2024-03-01T16:27:54.528Z,12.05
2024-03-01T16:30:29.865Z,12.00
2024-03-01T16:33:01.872Z,11.99
2024-03-01T16:36:07.310Z,11.94
2024-03-01T16:38:43.537Z,11.88
2024-03-01T16:41:36.784Z,11.83
2024-03-01T16:44:33.536Z,11.79
2024-03-01T16:47:05.448Z,11.73
2024-03-01T16:49:41.339Z,11.70
2024-03-01T16:52:17.778Z,11.69
2024-03-01T16:54:49.748Z,11.68
2024-03-01T16:57:28.657Z,11.65
2024-03-01T17:00:01.586Z,11.62
2024-03-01T17:02:36.680Z,11.58
2024-03-01T17:05:24.108Z,11.54
2024-03-01T17:07:56.002Z,11.52
2024-03-01T17:10:37.032Z,11.50
2024-03-01T17:13:09.783Z,11.49
2024-03-01T17:15:41.622Z,11.48
2024-03-01T17:18:16.594Z,11.46
2024-03-01T17:20:51.469Z,11.46
2024-03-01T17:23:23.369Z,11.45
2024-03-01T17:25:55.479Z,11.44
2024-03-01T17:28:27.381Z,11.41
2024-03-01T17:30:59.307Z,11.40
2024-03-01T17:33:31.714Z,11.40
2024-03-01T17:36:03.729Z,11.37
2024-03-01T17:38:35.617Z,11.34
2024-03-01T17:41:07.594Z,11.31
2024-03-01T17:43:39.948Z,11.29
2024-03-01T17:46:12.032Z,11.26
2024-03-01T17:48:43.913Z,11.24
2024-03-01T17:51:15.922Z,11.25
2024-03-01T17:53:48.266Z,11.24
2024-03-01T17:56:20.483Z,11.24
2024-03-01T17:58:53.757Z,11.23
2024-03-01T18:01:26.114Z,11.22
2024-03-01T18:03:58.381Z,11.21
2024-03-01T18:06:30.280Z,11.20
2024-03-01T18:09:02.454Z,11.22
2024-03-01T18:11:34.822Z,11.23
2024-03-01T18:14:09.032Z,11.21
2024-03-01T18:16:41.161Z,11.20
2024-03-01T18:19:16.152Z,11.18
2024-03-01T18:21:49.347Z,11.15
2024-03-01T18:24:22.384Z,11.12
2024-03-01T18:26:59.347Z,11.10
2024-03-01T18:29:31.626Z,11.11
2024-03-01T18:32:03.440Z,11.10
2024-03-01T18:34:35.319Z,11.09
2024-03-01T18:37:08.312Z,11.05
2024-03-01T18:39:40.234Z,11.01
2024-03-01T18:42:12.021Z,10.99
2024-03-01T18:44:43.920Z,10.96
2024-03-01T18:47:15.729Z,10.97
2024-03-01T18:49:47.665Z,10.98
2024-03-01T18:52:19.447Z,10.97
2024-03-01T18:54:51.294Z,10.94
2024-03-01T18:57:23.106Z,10.91
2024-03-01T18:59:57.642Z,10.88
2024-03-01T19:02:29.689Z,10.85
2024-03-01T19:05:02.580Z,10.85
2024-03-01T19:07:34.429Z,10.83
2024-03-01T19:10:08.040Z,10.81
2024-03-01T19:12:39.901Z,10.79
2024-03-01T19:15:12.428Z,10.77
2024-03-01T19:17:44.258Z,10.76
2024-03-01T19:20:16.255Z,10.75
2024-03-01T19:22:48.239Z,10.73
2024-03-01T19:25:21.104Z,10.70
2024-03-01T19:27:52.885Z,10.67
2024-03-01T19:30:26.077Z,10.64
2024-03-01T19:32:57.886Z,10.60
2024-03-01T19:35:31.402Z,10.60
2024-03-01T19:38:03.194Z,10.59
2024-03-01T19:40:35.079Z,10.56
2024-03-01T19:43:07.310Z,10.54
2024-03-01T19:45:39.136Z,10.51
2024-03-01T19:48:11.325Z,10.49
2024-03-01T19:50:43.306Z,10.46
2024-03-01T19:53:15.159Z,10.47
2024-03-01T19:55:47.199Z,10.47
2024-03-01T19:58:21.268Z,10.44
2024-03-01T20:00:53.729Z,10.41
2024-03-01T20:03:26.002Z,10.37
2024-03-01T20:05:57.990Z,10.32
2024-03-01T20:08:29.761Z,10.32
2024-03-01T20:11:01.986Z,10.29
2024-03-01T20:13:33.897Z,10.25
2024-03-01T20:16:06.013Z,10.22
2024-03-01T20:18:38.060Z,10.19
2024-03-01T20:21:09.882Z,10.15
2024-03-01T20:23:46.213Z,10.14
2024-03-01T20:26:24.058Z,10.12
2024-03-01T20:28:55.956Z,10.09
2024-03-01T20:31:28.210Z,10.07
2024-03-01T20:34:00.232Z,10.04
2024-03-01T20:36:33.034Z,10.03
2024-03-01T20:39:06.843Z,10.03
2024-03-01T20:41:38.862Z,10.02
2024-03-01T20:44:10.642Z,9.99
2024-03-01T20:46:44.352Z,9.95
2024-03-01T20:49:16.637Z,9.92
2024-03-01T20:51:48.866Z,9.91
2024-03-01T20:54:21.660Z,9.93
2024-03-01T20:56:53.928Z,9.93
2024-03-01T20:59:25.758Z,9.90
2024-03-01T21:01:57.684Z,9.87
2024-03-01T21:04:29.602Z,9.84
2024-03-01T21:07:02.739Z,9.81
2024-03-01T21:09:38.575Z,9.81
2024-03-01T21:12:13.411Z,9.81
2024-03-01T21:14:45.426Z,9.78
2024-03-01T21:17:17.373Z,9.76
2024-03-01T21:19:49.410Z,9.74
2024-03-01T21:24:58.032Z,9.73
2024-03-01T21:27:29.921Z,9.73
2024-03-01T21:30:01.780Z,9.70
2024-03-01T21:32:33.660Z,9.67
2024-03-01T21:35:08.679Z,9.65
2024-03-01T21:37:40.815Z,9.64
2024-03-01T21:40:21.963Z,9.65
2024-03-01T21:42:53.905Z,9.64
2024-03-01T21:45:25.788Z,9.61
2024-03-01T21:47:57.721Z,9.59
2024-03-01T21:50:29.812Z,9.57
2024-03-01T21:53:01.723Z,9.56
2024-03-01T21:55:33.679Z,9.55
2024-03-01T21:58:06.107Z,9.52
2024-03-01T22:00:37.955Z,9.48
2024-03-01T22:03:09.960Z,9.44
2024-03-01T22:05:42.083Z,9.40
2024-03-01T22:08:14.972Z,9.42
2024-03-01T22:10:47.576Z,9.41
2024-03-01T22:13:20.536Z,9.40
2024-03-01T22:15:52.601Z,9.37
2024-03-01T22:18:24.505Z,9.34
2024-03-01T22:20:56.347Z,9.33
2024-03-01T22:23:28.443Z,9.34
2024-03-01T22:26:00.469Z,9.32
2024-03-01T22:28:32.340Z,9.30
2024-03-01T22:31:04.831Z,9.27
2024-03-01T22:33:38.575Z,9.25
2024-03-01T22:36:14.431Z,9.22
2024-03-01T22:38:48.337Z,9.23
2024-03-01T22:41:20.201Z,9.23
2024-03-01T22:43:54.218Z,9.19
2024-03-01T22:46:26.194Z,9.14
2024-03-01T22:48:58.486Z,9.09
2024-03-01T22:54:25.821Z,9.02
2024-03-01T22:56:58.463Z,8.99
2024-03-01T23:00:01.082Z,8.92
2024-03-01T23:02:35.121Z,8.87
2024-03-01T23:05:21.243Z,8.82
2024-03-01T23:07:53.177Z,8.80
2024-03-01T23:10:27.423Z,8.79
2024-03-01T23:12:59.215Z,8.78
2024-03-01T23:15:31.232Z,8.74
2024-03-01T23:18:03.058Z,8.69
2024-03-01T23:20:34.889Z,8.64
2024-03-01T23:23:09.327Z,8.63
2024-03-01T23:25:42.903Z,8.62
2024-03-01T23:28:14.764Z,8.61
2024-03-01T23:30:47.257Z,8.58
2024-03-01T23:33:19.256Z,8.56
2024-03-01T23:35:51.300Z,8.54
2024-03-01T23:38:23.121Z,8.55
2024-03-01T23:40:56.141Z,8.57
2024-03-01T23:43:28.048Z,8.57
2024-03-01T23:46:00.035Z,8.56
2024-03-01T23:48:31.807Z,8.57
2024-03-01T23:51:03.737Z,8.58
2024-03-01T23:53:35.708Z,8.61
2024-03-01T23:56:08.075Z,8.64
2024-03-01T23:58:43.055Z,8.66
